Earls Colne, United Kingdom
Current Conditions -  °F | °C
As of 1:50 PM on Saturday 25 Oct 2014 (Local Time) from EGUW Reporting Station
Few Clouds Few Clouds  
Wind Chill: 57°   Ceiling: Unl
Heat Index: 57°   Visibility: 6mi
Dew Point: 46°   Wind: 15mph
Humidity: 67%   Direction: 240°WSW
Pressure: 30.03"   Gusts: NA
Location:  51.93°N, 0.7°E
Report Text: EGUW 251250Z AUTO 24013KT 9999 FEW023/// 14/08 Q1017
Loading
Personal Weather Stations






























Interactive Weather Map
Tropical Storm Tracking
New forecast layout! Learn more

10-Day Weather Forecast

Advertisements
Track Severe Weather on mobile